Mississippi Test Facility, Mississippi
Current Conditions -  °F | °C
As of 9:53 PM on Thursday 27 Nov 2014 (Local Time) from KGPT Reporting Station
Clear Clear  
Wind Chill: 39°   Ceiling: Unl
Heat Index: 43°   Visibility: 10mi
Dew Point: 33°   Wind: 6mph
Humidity: 68%   Direction: 10°N
Pressure: 30.44"   Gusts: NA
Location:  30.3112°N, 89.3277°W
Report Text: KGPT 280353Z 01005KT 10SM CLR 06/01 A3044 RMK AO2 SLP308 T00610006 PNO $
Loading
Personal Weather Stations






























Interactive Weather Map New forecast layout! Learn more

10-Day Weather Forecast

Advertisements
Track Severe Weather on mobile